createdAt,value
2019-03-03T00:02:45.772Z,9.25
2019-03-03T00:05:50.926Z,9.33
2019-03-03T00:08:57.114Z,8.97
2019-03-03T00:12:02.220Z,8.99
2019-03-03T00:15:08.163Z,8.98
2019-03-03T00:18:13.328Z,8.96
2019-03-03T00:21:20.118Z,8.69
2019-03-03T00:24:25.341Z,8.73
2019-03-03T00:27:30.454Z,8.69
2019-03-03T00:30:35.592Z,8.58
2019-03-03T00:33:40.849Z,8.61
2019-03-03T00:37:03.604Z,8.56
2019-03-03T00:40:18.673Z,8.69
2019-03-03T00:43:41.669Z,8.95
2019-03-03T00:47:13.531Z,8.85
2019-03-03T00:50:37.734Z,8.93
2019-03-03T00:54:01.551Z,8.97
2019-03-03T00:57:24.545Z,9.02
2019-03-03T01:00:52.583Z,9.09
2019-03-03T01:04:06.397Z,9.09
2019-03-03T01:07:33.815Z,9.22
2019-03-03T01:11:06.728Z,9.07
2019-03-03T01:14:28.386Z,9.21
2019-03-03T01:17:40.543Z,9.32
2019-03-03T01:21:16.647Z,9.27
2019-03-03T01:24:31.171Z,9.27
2019-03-03T01:27:36.311Z,9.31
2019-03-03T01:30:41.480Z,9.35
2019-03-03T01:33:46.527Z,9.26
2019-03-03T01:36:51.671Z,9.33
2019-03-03T01:39:56.813Z,9.21
2019-03-03T01:43:01.976Z,9.29
2019-03-03T01:46:07.031Z,9.25
2019-03-03T01:49:12.151Z,9.11
2019-03-03T01:52:17.344Z,8.88
2019-03-03T01:55:22.427Z,9.06
2019-03-03T01:58:27.537Z,8.88
2019-03-03T02:01:32.657Z,8.94
2019-03-03T02:04:37.750Z,8.81
2019-03-03T02:07:42.847Z,8.78
2019-03-03T02:10:48.014Z,8.91
2019-03-03T02:13:53.235Z,8.91
2019-03-03T02:16:58.322Z,9.07
2019-03-03T02:20:03.741Z,9.23
2019-03-03T02:23:08.869Z,8.99
2019-03-03T02:26:14.064Z,8.91
2019-03-03T02:29:19.162Z,8.88
2019-03-03T02:32:24.292Z,8.94
2019-03-03T02:35:29.531Z,8.87
2019-03-03T02:38:34.667Z,8.83
2019-03-03T02:41:39.767Z,8.72
2019-03-03T02:44:45.524Z,8.76
2019-03-03T02:47:50.613Z,8.88
2019-03-03T02:50:55.820Z,8.89
2019-03-03T02:54:00.924Z,8.84
2019-03-03T02:57:06.109Z,8.71
2019-03-03T03:00:15.831Z,8.84
2019-03-03T03:03:22.046Z,8.87
2019-03-03T03:06:55.437Z,8.93
2019-03-03T03:10:31.848Z,8.74
2019-03-03T03:13:54.913Z,8.75
2019-03-03T03:17:18.682Z,8.60
2019-03-03T03:20:41.322Z,8.52
2019-03-03T03:24:01.598Z,8.60
2019-03-03T03:27:29.174Z,8.82
2019-03-03T03:30:56.067Z,8.57
2019-03-03T03:34:14.638Z,8.68
2019-03-03T03:37:32.092Z,8.56
2019-03-03T03:40:52.367Z,8.63
2019-03-03T03:44:09.879Z,8.78
2019-03-03T03:47:23.068Z,8.68
2019-03-03T03:50:59.385Z,8.80
2019-03-03T03:54:30.414Z,8.68
2019-03-03T03:58:00.343Z,8.52
2019-03-03T04:01:17.216Z,8.59
2019-03-03T04:04:47.154Z,8.64
2019-03-03T04:08:20.452Z,9.00
2019-03-03T04:11:47.591Z,8.98
2019-03-03T04:15:17.627Z,8.88
2019-03-03T04:18:45.149Z,8.93
2019-03-03T04:22:09.319Z,9.03
2019-03-03T04:25:41.849Z,8.93
2019-03-03T04:29:08.291Z,8.98
2019-03-03T04:32:38.258Z,9.11
2019-03-03T04:36:10.490Z,8.92
2019-03-03T04:39:20.873Z,8.84
2019-03-03T04:42:41.180Z,8.83
2019-03-03T04:45:53.504Z,8.80
2019-03-03T04:49:06.300Z,8.68
2019-03-03T04:52:30.401Z,8.57
2019-03-03T04:55:54.532Z,8.53
2019-03-03T04:59:24.516Z,8.52
2019-03-03T05:02:50.425Z,8.65
2019-03-03T05:06:01.673Z,8.72
2019-03-03T05:09:19.315Z,8.95
2019-03-03T05:12:43.150Z,8.70
2019-03-03T05:16:13.163Z,8.70
2019-03-03T05:19:28.375Z,8.38
2019-03-03T05:22:33.531Z,8.54
2019-03-03T05:25:38.613Z,8.88
2019-03-03T05:28:43.744Z,8.77
2019-03-03T05:31:49.084Z,8.87
2019-03-03T05:34:55.235Z,9.08
2019-03-03T05:38:00.430Z,9.06
2019-03-03T05:41:05.500Z,8.96
2019-03-03T05:44:10.579Z,8.97
2019-03-03T05:47:15.689Z,9.01
2019-03-03T05:50:20.835Z,9.16
2019-03-03T05:53:25.923Z,9.10
2019-03-03T05:56:31.050Z,9.13
2019-03-03T05:59:36.186Z,9.14
2019-03-03T06:02:41.295Z,9.17
2019-03-03T06:05:47.474Z,9.17
2019-03-03T06:08:52.631Z,9.50
2019-03-03T06:11:57.780Z,9.53
2019-03-03T06:15:02.893Z,9.33
2019-03-03T06:18:08.050Z,9.42
2019-03-03T06:21:13.219Z,9.37
2019-03-03T06:24:18.319Z,9.48
2019-03-03T06:27:23.510Z,9.44
2019-03-03T06:30:28.606Z,9.56
2019-03-03T06:33:33.765Z,9.43
2019-03-03T06:36:38.906Z,9.47
2019-03-03T06:39:44.064Z,9.42
2019-03-03T06:42:49.213Z,9.48
2019-03-03T06:45:54.322Z,9.60
2019-03-03T06:48:59.400Z,9.62
2019-03-03T06:52:04.510Z,9.58
2019-03-03T06:55:11.527Z,9.65
2019-03-03T06:58:16.707Z,9.67
2019-03-03T07:01:21.950Z,9.76
2019-03-03T07:04:27.119Z,9.75
2019-03-03T07:07:32.196Z,9.78
2019-03-03T07:10:37.333Z,9.90
2019-03-03T07:13:42.516Z,9.97
2019-03-03T07:16:47.645Z,10.07
2019-03-03T07:19:52.861Z,10.03
2019-03-03T07:22:58.197Z,10.03
2019-03-03T07:26:03.417Z,10.13
2019-03-03T07:29:08.563Z,10.23
2019-03-03T07:32:13.773Z,10.19
2019-03-03T07:35:18.935Z,10.26
2019-03-03T07:38:24.124Z,10.29
2019-03-03T07:41:29.304Z,10.24
2019-03-03T07:44:34.665Z,10.26
2019-03-03T07:47:39.810Z,10.45
2019-03-03T07:50:44.946Z,10.42
2019-03-03T07:53:50.059Z,10.39
2019-03-03T07:56:55.290Z,10.55
2019-03-03T08:00:00.479Z,10.78
2019-03-03T08:03:07.292Z,10.59
2019-03-03T08:06:12.503Z,10.58
2019-03-03T08:09:17.649Z,10.54
2019-03-03T08:12:22.786Z,10.51
2019-03-03T08:15:28.034Z,10.55
2019-03-03T08:18:33.322Z,10.61
2019-03-03T08:21:38.451Z,10.71
2019-03-03T08:24:43.546Z,10.66
2019-03-03T08:27:49.797Z,11.05
2019-03-03T08:30:54.912Z,11.28
2019-03-03T08:34:01.434Z,11.05
2019-03-03T08:37:06.653Z,11.37
2019-03-03T08:40:11.901Z,11.34
2019-03-03T08:43:34.659Z,11.51
2019-03-03T08:46:48.255Z,11.67
2019-03-03T08:50:12.307Z,11.44
2019-03-03T08:53:39.317Z,11.40
2019-03-03T08:57:07.101Z,11.52
2019-03-03T09:00:30.051Z,11.54
2019-03-03T09:03:41.023Z,11.34
2019-03-03T09:06:57.322Z,11.72
2019-03-03T09:10:25.565Z,11.33
2019-03-03T09:13:52.759Z,11.46
2019-03-03T09:17:35.149Z,11.71
2019-03-03T09:21:03.619Z,11.89
2019-03-03T09:24:30.504Z,12.30
2019-03-03T09:28:06.810Z,11.84
2019-03-03T09:31:29.547Z,12.08
2019-03-03T09:34:49.927Z,12.56
2019-03-03T09:38:03.532Z,12.57
2019-03-03T09:41:15.187Z,12.61
2019-03-03T09:44:45.906Z,12.86
2019-03-03T09:48:18.908Z,13.29
2019-03-03T09:51:52.020Z,13.33
2019-03-03T09:55:08.114Z,12.84
2019-03-03T09:58:44.178Z,13.08
2019-03-03T10:02:08.272Z,12.54
2019-03-03T10:05:32.360Z,12.39
2019-03-03T10:08:48.014Z,12.74
2019-03-03T10:11:59.931Z,12.72
2019-03-03T10:15:43.011Z,12.86
2019-03-03T10:18:55.949Z,12.41
2019-03-03T10:22:23.012Z,12.39
2019-03-03T10:25:34.955Z,12.33
2019-03-03T10:28:50.206Z,12.52
2019-03-03T10:32:30.202Z,13.02
2019-03-03T10:35:53.051Z,13.14
2019-03-03T10:39:05.543Z,13.15
2019-03-03T10:42:40.231Z,13.07
2019-03-03T10:46:10.670Z,13.22
2019-03-03T10:49:34.876Z,13.16
2019-03-03T10:53:11.260Z,13.45
2019-03-03T10:56:26.267Z,14.19
2019-03-03T10:59:55.059Z,13.47
2019-03-03T11:03:28.937Z,13.66
2019-03-03T11:06:51.531Z,13.57
2019-03-03T11:10:21.870Z,13.23
2019-03-03T11:13:52.501Z,13.08
2019-03-03T11:17:09.021Z,13.35
2019-03-03T11:20:24.664Z,13.23
2019-03-03T11:23:47.593Z,13.18
2019-03-03T11:27:10.589Z,12.93
2019-03-03T11:30:37.488Z,13.09
2019-03-03T11:34:04.801Z,13.02
2019-03-03T11:37:27.976Z,13.00
2019-03-03T11:40:58.178Z,13.13
2019-03-03T11:44:10.811Z,12.75
2019-03-03T11:47:34.190Z,12.85
2019-03-03T11:50:52.431Z,13.06
2019-03-03T11:54:12.246Z,12.66
2019-03-03T11:57:32.322Z,12.91
2019-03-03T12:00:45.845Z,12.73
2019-03-03T12:04:18.983Z,12.61
2019-03-03T12:07:55.387Z,12.78
2019-03-03T12:11:08.217Z,12.97
2019-03-03T12:14:35.284Z,13.17
2019-03-03T12:17:46.466Z,13.38
2019-03-03T12:21:16.889Z,13.95
2019-03-03T12:24:31.077Z,13.57
2019-03-03T12:27:48.047Z,13.37
2019-03-03T12:31:01.334Z,13.95
2019-03-03T12:34:17.607Z,13.85
2019-03-03T12:37:40.305Z,13.85
2019-03-03T12:40:59.379Z,13.91
2019-03-03T12:44:10.715Z,13.63
2019-03-03T12:47:37.826Z,13.48
2019-03-03T12:51:11.303Z,13.56
2019-03-03T12:54:35.479Z,13.20
2019-03-03T12:58:11.582Z,13.75
2019-03-03T13:01:34.319Z,13.98
2019-03-03T13:04:59.172Z,13.68
2019-03-03T13:08:16.543Z,13.73
2019-03-03T13:11:50.928Z,13.72
2019-03-03T13:15:03.459Z,13.40
2019-03-03T13:18:25.112Z,13.11
2019-03-03T13:21:52.401Z,13.44
2019-03-03T13:25:21.528Z,13.38
2019-03-03T13:28:44.700Z,13.30
2019-03-03T13:32:07.456Z,13.26
2019-03-03T13:35:34.400Z,13.11
2019-03-03T13:38:57.241Z,12.92
2019-03-03T13:42:21.307Z,13.04
2019-03-03T13:45:28.718Z,13.07
2019-03-03T13:48:33.984Z,12.89
2019-03-03T13:51:39.254Z,13.15
2019-03-03T13:54:44.363Z,13.19
2019-03-03T13:57:49.606Z,13.45
2019-03-03T14:00:54.802Z,13.41
2019-03-03T14:03:59.957Z,13.46
2019-03-03T14:07:05.518Z,13.34
2019-03-03T14:10:11.206Z,13.56
2019-03-03T14:13:16.440Z,13.59
2019-03-03T14:16:21.569Z,13.48
2019-03-03T14:19:26.725Z,13.45
2019-03-03T14:22:31.994Z,13.63
2019-03-03T14:25:37.115Z,13.91
2019-03-03T14:28:42.251Z,13.95
2019-03-03T14:31:47.415Z,13.93
2019-03-03T14:34:52.595Z,14.11
2019-03-03T14:37:57.717Z,13.99
2019-03-03T14:41:02.866Z,13.86
2019-03-03T14:44:08.050Z,13.92
2019-03-03T14:47:13.162Z,13.97
2019-03-03T14:50:18.634Z,13.60
2019-03-03T14:53:25.252Z,13.65
2019-03-03T14:56:30.438Z,13.62
2019-03-03T14:59:35.550Z,13.65
2019-03-03T15:02:40.707Z,13.61
2019-03-03T15:05:46.989Z,13.50
2019-03-03T15:08:52.245Z,13.59
2019-03-03T15:11:57.457Z,13.85
2019-03-03T15:15:02.839Z,13.66
2019-03-03T15:18:08.140Z,13.19
2019-03-03T15:21:14.196Z,13.18
2019-03-03T15:24:19.402Z,12.97
2019-03-03T15:27:24.639Z,13.11
2019-03-03T15:30:29.802Z,13.37
2019-03-03T15:33:35.115Z,13.50
2019-03-03T15:36:40.380Z,13.38
2019-03-03T15:39:45.513Z,13.21
2019-03-03T15:42:50.868Z,13.09
2019-03-03T15:45:57.056Z,12.90
2019-03-03T15:49:02.221Z,12.82
2019-03-03T15:52:07.358Z,12.85
2019-03-03T15:55:13.254Z,12.86
2019-03-03T15:58:18.518Z,12.85
2019-03-03T16:01:25.165Z,12.64
2019-03-03T16:04:30.372Z,12.40
2019-03-03T16:07:35.489Z,12.41
2019-03-03T16:10:40.684Z,12.33
2019-03-03T16:13:45.760Z,12.16
2019-03-03T16:16:50.891Z,12.20
2019-03-03T16:19:56.159Z,12.19
2019-03-03T16:23:01.403Z,12.10
2019-03-03T16:26:06.530Z,12.08
2019-03-03T16:29:11.805Z,12.05
2019-03-03T16:32:18.015Z,11.93
2019-03-03T16:35:23.262Z,11.87
2019-03-03T16:38:28.379Z,11.84
2019-03-03T16:41:33.527Z,11.82
2019-03-03T16:44:38.704Z,11.70
2019-03-03T16:47:44.037Z,11.69
2019-03-03T16:50:49.196Z,11.62
2019-03-03T16:53:54.376Z,11.51
2019-03-03T16:56:59.520Z,11.59
2019-03-03T17:00:06.942Z,11.55
2019-03-03T17:03:12.889Z,11.49
2019-03-03T17:06:18.070Z,11.51
2019-03-03T17:09:23.186Z,11.45
2019-03-03T17:12:28.538Z,11.50
2019-03-03T17:15:33.629Z,11.38
2019-03-03T17:18:40.523Z,11.32
2019-03-03T17:21:45.723Z,11.25
2019-03-03T17:24:51.289Z,11.22
2019-03-03T17:27:56.489Z,11.13
2019-03-03T17:31:01.614Z,11.22
2019-03-03T17:34:12.992Z,11.23
2019-03-03T17:37:13.647Z,11.26
2019-03-03T17:40:19.871Z,11.18
2019-03-03T17:43:25.045Z,11.36
2019-03-03T17:46:30.134Z,11.53
2019-03-03T17:49:35.333Z,11.40
2019-03-03T17:52:40.507Z,11.46
2019-03-03T17:55:45.722Z,11.38
2019-03-03T17:58:50.930Z,11.41
2019-03-03T18:01:56.259Z,11.68
2019-03-03T18:05:01.401Z,11.56
2019-03-03T18:08:06.640Z,11.51
2019-03-03T18:11:11.809Z,11.61
2019-03-03T18:14:17.135Z,11.63
2019-03-03T18:17:24.447Z,11.62
2019-03-03T18:20:29.627Z,11.59
2019-03-03T18:23:34.730Z,11.49
2019-03-03T18:26:39.943Z,11.51
2019-03-03T18:29:45.226Z,11.63
2019-03-03T18:32:50.482Z,11.54
2019-03-03T18:35:55.731Z,11.62
2019-03-03T18:39:01.038Z,11.61
2019-03-03T18:42:07.843Z,11.55
2019-03-03T18:45:14.061Z,11.60
2019-03-03T18:48:19.176Z,11.58
2019-03-03T18:51:24.343Z,11.52
2019-03-03T18:54:29.482Z,11.56
2019-03-03T18:57:37.137Z,11.55
2019-03-03T19:00:42.323Z,11.53
2019-03-03T19:03:47.568Z,11.45
2019-03-03T19:06:53.284Z,11.49
2019-03-03T19:09:58.529Z,11.42
2019-03-03T19:13:03.720Z,11.36
2019-03-03T19:16:08.976Z,11.27
2019-03-03T19:19:14.254Z,11.33
2019-03-03T19:22:19.465Z,11.28
2019-03-03T19:25:25.641Z,11.31
2019-03-03T19:28:30.777Z,11.35
2019-03-03T19:31:35.972Z,11.36
2019-03-03T19:34:41.208Z,11.38
2019-03-03T19:37:46.354Z,11.34
2019-03-03T19:40:51.494Z,11.26
2019-03-03T19:43:56.638Z,11.16
2019-03-03T19:47:01.962Z,11.23
2019-03-03T19:50:08.736Z,11.27
2019-03-03T19:53:13.962Z,11.30
2019-03-03T19:56:19.519Z,11.40
2019-03-03T19:59:24.675Z,11.33
2019-03-03T20:02:29.858Z,11.41
2019-03-03T20:05:36.275Z,11.36
2019-03-03T20:08:41.578Z,11.42
2019-03-03T20:11:47.870Z,11.29
2019-03-03T20:14:53.148Z,11.35
2019-03-03T20:17:58.262Z,11.29
2019-03-03T20:21:04.357Z,11.30
2019-03-03T20:24:09.537Z,11.09
2019-03-03T20:27:15.028Z,11.15
2019-03-03T20:30:20.455Z,10.98
2019-03-03T20:33:25.685Z,10.95
2019-03-03T20:36:30.900Z,10.89
2019-03-03T20:39:36.179Z,11.01
2019-03-03T20:42:43.006Z,10.76
2019-03-03T20:45:48.290Z,10.76
2019-03-03T20:48:53.492Z,10.73
2019-03-03T20:51:58.698Z,10.93
2019-03-03T20:55:03.854Z,10.98
2019-03-03T20:58:09.011Z,10.93
2019-03-03T21:01:14.130Z,11.21
2019-03-03T21:04:19.402Z,11.06
2019-03-03T21:07:24.596Z,11.17
2019-03-03T21:10:29.774Z,11.33
2019-03-03T21:13:34.958Z,11.38
2019-03-03T21:16:40.054Z,11.22
2019-03-03T21:19:45.193Z,11.23
2019-03-03T21:22:50.386Z,11.27
2019-03-03T21:25:55.540Z,11.30
2019-03-03T21:29:00.687Z,11.27
2019-03-03T21:32:05.841Z,11.28
2019-03-03T21:35:10.985Z,11.38
2019-03-03T21:38:16.132Z,11.32
2019-03-03T21:41:21.307Z,11.45
2019-03-03T21:44:26.432Z,11.55
2019-03-03T21:47:31.581Z,11.42
2019-03-03T21:50:36.791Z,11.46
2019-03-03T21:53:41.958Z,11.70
2019-03-03T21:56:47.040Z,11.69
2019-03-03T21:59:52.308Z,11.64
2019-03-03T22:02:58.786Z,11.73
2019-03-03T22:06:04.006Z,11.80
2019-03-03T22:09:09.935Z,11.65
2019-03-03T22:12:16.653Z,11.69
2019-03-03T22:15:21.729Z,11.68
2019-03-03T22:18:26.869Z,11.75
2019-03-03T22:21:32.049Z,11.68
2019-03-03T22:24:37.299Z,11.63
2019-03-03T22:27:42.449Z,11.86
2019-03-03T22:30:47.668Z,11.74
2019-03-03T22:33:52.822Z,11.76
2019-03-03T22:36:57.998Z,11.84
2019-03-03T22:40:03.119Z,11.90
2019-03-03T22:43:08.373Z,11.73
2019-03-03T22:46:13.481Z,11.65
2019-03-03T22:49:18.559Z,11.62
2019-03-03T22:52:23.806Z,11.63
2019-03-03T22:55:34.609Z,11.54
2019-03-03T22:58:39.936Z,11.81
2019-03-03T23:01:46.341Z,11.64
2019-03-03T23:05:05.889Z,11.64
2019-03-03T23:08:24.079Z,11.70
2019-03-03T23:11:59.545Z,11.60
2019-03-03T23:15:31.070Z,11.28
2019-03-03T23:19:07.635Z,10.91
2019-03-03T23:22:52.800Z,10.35
2019-03-03T23:25:57.966Z,9.94
2019-03-03T23:29:03.232Z,10.12
2019-03-03T23:32:08.356Z,9.94
2019-03-03T23:35:13.586Z,9.61
2019-03-03T23:38:18.774Z,9.50
2019-03-03T23:41:23.945Z,9.33
2019-03-03T23:44:29.087Z,9.40
2019-03-03T23:47:34.217Z,9.29
2019-03-03T23:50:39.377Z,9.19
2019-03-03T23:53:44.482Z,9.19
2019-03-03T23:56:49.625Z,9.34
2019-03-03T23:59:54.711Z,9.45
